createdAt,value
2022-08-08T00:01:10.267Z,5.30
2022-08-08T00:03:48.938Z,4.93
2022-08-08T00:06:34.738Z,4.70
2022-08-08T00:09:12.085Z,4.80
2022-08-08T00:12:07.965Z,4.40
2022-08-08T00:14:48.553Z,5.13
2022-08-08T00:18:02.140Z,5.20
2022-08-08T00:20:37.307Z,5.17
2022-08-08T00:23:09.198Z,5.17
2022-08-08T00:25:46.428Z,4.90
2022-08-08T00:28:36.186Z,5.53
2022-08-08T00:32:28.158Z,5.00
2022-08-08T00:34:46.050Z,5.00
2022-08-08T00:37:47.510Z,5.33
2022-08-08T00:41:09.730Z,5.20
2022-08-08T00:43:58.973Z,4.73
2022-08-08T00:46:59.114Z,5.53
2022-08-08T00:50:12.822Z,4.90
2022-08-08T00:53:00.634Z,4.83
2022-08-08T00:56:11.482Z,4.53
2022-08-08T00:59:43.707Z,4.73
2022-08-08T01:03:59.799Z,4.93
2022-08-08T01:06:05.134Z,4.40
2022-08-08T01:09:36.138Z,4.70
2022-08-08T01:12:47.125Z,4.20
2022-08-08T01:16:09.214Z,4.37
2022-08-08T01:19:52.514Z,4.27
2022-08-08T01:22:45.491Z,4.83
2022-08-08T01:26:05.892Z,4.60
2022-08-08T01:29:05.978Z,4.50
2022-08-08T01:32:17.202Z,4.37
2022-08-08T01:35:29.777Z,4.43
2022-08-08T01:38:45.146Z,4.30
2022-08-08T01:41:27.630Z,4.30
2022-08-08T01:44:18.739Z,4.70
2022-08-08T01:46:53.976Z,4.30
2022-08-08T01:49:40.899Z,3.80
2022-08-08T01:52:55.031Z,3.90
2022-08-08T01:56:26.437Z,3.63
2022-08-08T01:58:38.108Z,3.93
2022-08-08T02:01:20.402Z,3.77
2022-08-08T02:04:19.380Z,4.00
2022-08-08T02:07:04.226Z,4.50
2022-08-08T02:10:11.554Z,3.93
2022-08-08T02:12:52.303Z,4.83
2022-08-08T02:15:30.406Z,4.20
2022-08-08T02:18:11.774Z,4.50
2022-08-08T02:21:08.525Z,3.77
2022-08-08T02:23:47.673Z,3.77
2022-08-08T02:26:25.687Z,3.80
2022-08-08T02:29:18.937Z,3.90
2022-08-08T02:32:22.822Z,4.17
2022-08-08T02:35:35.833Z,3.73
2022-08-08T02:38:49.152Z,4.60
2022-08-08T02:42:05.827Z,4.20
2022-08-08T02:45:18.752Z,4.00
2022-08-08T02:48:26.164Z,3.80
2022-08-08T02:51:55.203Z,3.77
2022-08-08T02:54:43.229Z,3.40
2022-08-08T02:57:56.658Z,3.17
2022-08-08T03:00:50.573Z,3.60
2022-08-08T03:05:04.905Z,3.97
2022-08-08T03:07:41.704Z,4.27
2022-08-08T03:10:53.651Z,4.07
2022-08-08T03:15:56.873Z,4.30
2022-08-08T03:16:53.769Z,4.47
2022-08-08T03:19:51.149Z,4.80
2022-08-08T03:22:38.942Z,4.20
2022-08-08T03:25:17.900Z,4.37
2022-08-08T03:27:56.695Z,3.80
2022-08-08T03:30:27.391Z,4.07
2022-08-08T03:33:55.648Z,4.23
2022-08-08T03:36:04.308Z,4.20
2022-08-08T03:38:56.240Z,4.47
2022-08-08T03:42:26.931Z,3.87
2022-08-08T03:44:25.623Z,4.03
2022-08-08T03:46:55.008Z,4.13
2022-08-08T03:49:57.160Z,5.07
2022-08-08T03:52:16.642Z,4.93
2022-08-08T03:55:02.628Z,4.23
2022-08-08T03:58:32.371Z,5.07
2022-08-08T04:00:30.549Z,4.40
2022-08-08T04:03:11.576Z,5.30
2022-08-08T04:05:47.886Z,5.10
2022-08-08T04:08:33.483Z,5.03
2022-08-08T04:11:11.056Z,5.23
2022-08-08T04:14:03.967Z,4.63
2022-08-08T04:16:41.147Z,4.93
2022-08-08T04:19:23.950Z,4.60
2022-08-08T04:21:56.578Z,4.90
2022-08-08T04:24:30.463Z,5.17
2022-08-08T04:27:01.558Z,5.07
2022-08-08T04:29:33.298Z,4.50
2022-08-08T04:32:08.188Z,5.20
2022-08-08T04:34:49.251Z,5.50
2022-08-08T04:37:32.141Z,5.23
2022-08-08T04:40:07.923Z,5.43
2022-08-08T04:42:46.827Z,4.90
2022-08-08T04:45:29.634Z,5.00
2022-08-08T04:48:01.604Z,4.80
2022-08-08T04:50:38.556Z,4.67
2022-08-08T04:54:26.810Z,5.00
2022-08-08T04:56:02.594Z,5.10
2022-08-08T04:58:34.418Z,5.03
2022-08-08T05:01:08.809Z,4.60
2022-08-08T05:04:10.326Z,4.63
2022-08-08T05:06:33.933Z,5.17
2022-08-08T05:09:06.007Z,4.90
2022-08-08T05:11:39.361Z,5.00
2022-08-08T05:14:12.785Z,5.23
2022-08-08T05:16:54.931Z,6.73
2022-08-08T05:20:10.316Z,6.90
2022-08-08T05:22:20.970Z,5.83
2022-08-08T05:24:51.246Z,6.10
2022-08-08T05:27:22.634Z,6.20
2022-08-08T05:29:53.322Z,6.40
2022-08-08T05:32:30.000Z,5.67
2022-08-08T05:35:05.616Z,5.70
2022-08-08T05:37:52.342Z,5.63
2022-08-08T05:40:29.208Z,5.60
2022-08-08T05:43:15.585Z,5.80
2022-08-08T05:46:03.357Z,6.13
2022-08-08T05:48:38.377Z,6.03
2022-08-08T05:51:14.487Z,7.60
2022-08-08T05:54:24.028Z,6.03
2022-08-08T05:56:41.906Z,6.00
2022-08-08T06:00:01.024Z,6.07
2022-08-08T06:02:40.943Z,5.70
2022-08-08T06:05:33.541Z,5.67
2022-08-08T06:08:09.547Z,6.20
2022-08-08T06:10:42.527Z,5.17
2022-08-08T06:13:12.751Z,6.47
2022-08-08T06:15:51.257Z,5.47
2022-08-08T06:18:30.055Z,5.73
2022-08-08T06:21:03.770Z,5.07
2022-08-08T06:23:53.099Z,5.43
2022-08-08T06:26:45.481Z,6.00
2022-08-08T06:29:56.830Z,5.13
2022-08-08T06:32:21.010Z,3.80
2022-08-08T06:35:12.192Z,5.50
2022-08-08T06:37:56.025Z,5.50
2022-08-08T06:40:32.176Z,4.43
2022-08-08T06:43:09.462Z,4.20
2022-08-08T06:45:52.116Z,3.67
2022-08-08T06:48:22.132Z,4.27
2022-08-08T06:50:55.622Z,3.90
2022-08-08T06:53:39.384Z,3.70
2022-08-08T06:56:10.690Z,3.43
2022-08-08T06:58:39.958Z,3.37
2022-08-08T07:02:16.784Z,3.67
2022-08-08T07:04:39.125Z,4.33
2022-08-08T07:07:11.278Z,4.30
2022-08-08T07:09:59.242Z,3.00
2022-08-08T07:12:43.198Z,2.97
2022-08-08T07:15:40.952Z,2.77
2022-08-08T07:18:36.290Z,1.90
2022-08-08T07:21:04.911Z,2.50
2022-08-08T07:24:01.044Z,2.10
2022-08-08T07:26:37.815Z,2.33
2022-08-08T07:29:11.648Z,1.50
2022-08-08T07:31:49.661Z,1.70
2022-08-08T07:34:26.643Z,1.83
2022-08-08T07:36:58.579Z,2.40
2022-08-08T07:39:29.527Z,2.10
2022-08-08T07:42:07.673Z,1.73
2022-08-08T07:44:43.755Z,1.77
2022-08-08T07:47:13.808Z,2.20
2022-08-08T07:49:46.266Z,2.23
2022-08-08T07:52:23.459Z,1.60
2022-08-08T07:55:03.861Z,1.70
2022-08-08T07:57:48.560Z,1.50
2022-08-08T08:00:20.056Z,1.63
2022-08-08T08:03:09.824Z,1.37
2022-08-08T08:05:45.247Z,1.27
2022-08-08T08:08:27.420Z,1.53
2022-08-08T08:10:58.233Z,1.20
2022-08-08T08:14:05.820Z,1.57
2022-08-08T08:16:26.198Z,1.43
2022-08-08T08:18:59.657Z,1.27
2022-08-08T08:21:52.719Z,1.70
2022-08-08T08:24:47.976Z,1.50
2022-08-08T08:27:22.034Z,1.57
2022-08-08T08:29:55.730Z,1.37
2022-08-08T08:32:35.862Z,1.50
2022-08-08T08:35:11.095Z,1.30
2022-08-08T08:38:13.265Z,1.50
2022-08-08T08:40:34.750Z,1.50
2022-08-08T08:43:04.478Z,1.40
2022-08-08T08:45:39.096Z,1.20
2022-08-08T08:48:07.915Z,1.47
2022-08-08T08:50:40.951Z,1.53
2022-08-08T08:53:55.138Z,2.10
2022-08-08T08:56:12.511Z,1.67
2022-08-08T08:58:49.929Z,1.40
2022-08-08T09:01:27.718Z,1.47
2022-08-08T09:04:01.763Z,1.73
2022-08-08T09:06:40.524Z,1.30
2022-08-08T09:09:35.181Z,1.40
2022-08-08T09:12:13.007Z,1.70
2022-08-08T09:14:45.184Z,1.40
2022-08-08T09:17:19.446Z,1.67
2022-08-08T09:21:56.669Z,1.73
2022-08-08T09:22:46.487Z,1.80
2022-08-08T09:25:16.636Z,1.70
2022-08-08T09:27:56.671Z,1.40
2022-08-08T09:30:29.778Z,1.63
2022-08-08T09:33:12.819Z,1.50
2022-08-08T09:35:51.363Z,2.10
2022-08-08T09:38:36.171Z,1.80
2022-08-08T09:42:14.156Z,1.63
2022-08-08T09:44:40.711Z,1.70
2022-08-08T09:47:25.803Z,1.70
2022-08-08T09:50:03.292Z,1.30
2022-08-08T09:52:59.414Z,2.85
2022-08-08T09:55:31.331Z,4.40
2022-08-08T09:58:26.346Z,2.63
2022-08-08T10:01:14.398Z,4.07
2022-08-08T10:03:48.947Z,2.60
2022-08-08T10:06:29.196Z,1.97
2022-08-08T10:08:58.357Z,1.80
2022-08-08T10:12:27.201Z,1.80
2022-08-08T10:14:28.469Z,2.00
2022-08-08T10:17:38.647Z,2.20
2022-08-08T10:19:58.719Z,2.00
2022-08-08T10:22:32.249Z,2.00
2022-08-08T10:25:05.380Z,1.77
2022-08-08T10:27:42.673Z,1.73
2022-08-08T10:30:16.387Z,1.70
2022-08-08T10:33:01.683Z,1.60
2022-08-08T10:36:07.462Z,1.70
2022-08-08T10:38:22.731Z,1.20
2022-08-08T10:40:53.878Z,1.20
2022-08-08T10:43:23.493Z,1.60
2022-08-08T10:45:55.719Z,1.23
2022-08-08T10:48:38.835Z,1.10
2022-08-08T10:51:22.129Z,1.33
2022-08-08T10:53:57.415Z,1.20
2022-08-08T10:56:34.512Z,1.00
2022-08-08T10:59:08.111Z,1.13
2022-08-08T11:01:38.965Z,1.10
2022-08-08T11:04:11.762Z,0.90
2022-08-08T11:06:41.903Z,1.07
2022-08-08T11:09:19.673Z,1.00
2022-08-08T11:12:05.864Z,1.07
2022-08-08T11:14:50.739Z,1.00
2022-08-08T11:17:57.821Z,1.27
2022-08-08T11:20:14.370Z,1.07
2022-08-08T11:22:51.798Z,0.97
2022-08-08T11:25:52.809Z,1.10
2022-08-08T11:28:15.165Z,1.00
2022-08-08T11:30:50.293Z,0.80
2022-08-08T11:33:23.205Z,0.97
2022-08-08T11:36:13.415Z,0.93
2022-08-08T11:38:53.952Z,0.97
2022-08-08T11:41:28.052Z,1.00
2022-08-08T11:44:02.353Z,1.10
2022-08-08T11:46:34.528Z,0.80
2022-08-08T11:49:05.300Z,0.80
2022-08-08T11:51:39.716Z,1.00
2022-08-08T11:54:32.476Z,1.10
2022-08-08T11:57:17.443Z,1.23
2022-08-08T12:00:01.536Z,1.20
2022-08-08T12:02:51.389Z,0.90
2022-08-08T12:05:22.838Z,1.00
2022-08-08T12:07:55.806Z,1.00
2022-08-08T12:10:26.737Z,1.00
2022-08-08T12:13:04.085Z,1.00
2022-08-08T12:15:39.875Z,0.90
2022-08-08T12:18:18.199Z,1.10
2022-08-08T12:20:50.682Z,1.10
2022-08-08T12:23:43.078Z,1.00
2022-08-08T12:26:27.863Z,0.80
2022-08-08T12:29:25.692Z,0.97
2022-08-08T12:32:09.600Z,1.10
2022-08-08T12:34:43.610Z,1.40
2022-08-08T12:37:20.295Z,1.10
2022-08-08T12:39:59.943Z,1.20
2022-08-08T12:42:33.704Z,1.10
2022-08-08T12:45:53.435Z,1.23
2022-08-08T12:48:10.549Z,1.20
2022-08-08T12:50:49.293Z,1.10
2022-08-08T12:53:21.941Z,1.30
2022-08-08T12:56:19.035Z,1.10
2022-08-08T12:58:48.219Z,1.00
2022-08-08T13:01:34.369Z,0.90
2022-08-08T13:04:18.441Z,1.10
2022-08-08T13:07:00.959Z,1.00
2022-08-08T13:09:42.983Z,1.10
2022-08-08T13:12:29.912Z,1.30
2022-08-08T13:15:00.951Z,1.03
2022-08-08T13:18:08.449Z,1.10
2022-08-08T13:20:23.991Z,1.27
2022-08-08T13:23:30.229Z,1.03
2022-08-08T13:25:51.165Z,1.17
2022-08-08T13:28:32.116Z,1.20
2022-08-08T13:31:01.854Z,1.20
2022-08-08T13:33:42.502Z,1.33
2022-08-08T13:36:12.082Z,1.30
2022-08-08T13:38:41.013Z,1.40
2022-08-08T13:41:17.016Z,1.10
2022-08-08T13:43:47.242Z,0.97
2022-08-08T13:46:27.098Z,1.33
2022-08-08T13:49:11.266Z,1.20
2022-08-08T13:51:57.221Z,1.03
2022-08-08T13:54:29.587Z,1.13
2022-08-08T13:57:04.367Z,1.27
2022-08-08T13:59:43.647Z,1.20
2022-08-08T14:02:20.427Z,1.17
2022-08-08T14:05:05.081Z,1.07
2022-08-08T14:07:52.395Z,1.40
2022-08-08T14:10:36.685Z,1.10
2022-08-08T14:13:30.797Z,1.07
2022-08-08T14:16:03.379Z,1.20
2022-08-08T14:18:36.531Z,1.20
2022-08-08T14:21:22.350Z,1.00
2022-08-08T14:24:06.458Z,1.00
2022-08-08T14:26:41.662Z,1.20
2022-08-08T14:29:27.149Z,1.10
2022-08-08T14:32:10.859Z,1.30
2022-08-08T14:34:43.456Z,1.30
2022-08-08T14:37:18.598Z,1.13
2022-08-08T14:39:54.008Z,1.10
2022-08-08T14:42:36.598Z,1.37
2022-08-08T14:45:33.533Z,1.03
2022-08-08T14:48:16.496Z,1.10
2022-08-08T14:51:06.605Z,1.13
2022-08-08T14:53:54.442Z,1.00
2022-08-08T14:56:25.147Z,0.90
2022-08-08T14:58:54.231Z,1.33
2022-08-08T15:01:37.542Z,0.80
2022-08-08T15:04:11.543Z,0.80
2022-08-08T15:06:42.667Z,0.80
2022-08-08T15:09:13.951Z,0.77
2022-08-08T15:11:46.385Z,1.00
2022-08-08T15:14:25.243Z,0.90
2022-08-08T15:16:55.019Z,0.70
2022-08-08T15:19:28.060Z,0.97
2022-08-08T15:21:57.964Z,0.70
2022-08-08T15:24:31.026Z,0.70
2022-08-08T15:27:12.112Z,0.70
2022-08-08T15:29:48.482Z,0.83
2022-08-08T15:32:20.505Z,0.80
2022-08-08T15:35:00.135Z,0.73
2022-08-08T15:37:28.267Z,0.80
2022-08-08T15:40:00.970Z,0.87
2022-08-08T15:42:32.940Z,1.13
2022-08-08T15:45:01.639Z,1.20
2022-08-08T15:47:32.013Z,1.00
2022-08-08T15:50:01.710Z,1.33
2022-08-08T15:52:33.159Z,1.17
2022-08-08T15:55:03.904Z,2.00
2022-08-08T15:57:35.732Z,2.97
2022-08-08T16:00:26.076Z,6.50
2022-08-08T16:02:57.815Z,1.70
2022-08-08T16:05:35.827Z,4.83
2022-08-08T16:08:14.165Z,9.37
2022-08-08T16:13:09.178Z,3.70
2022-08-08T16:13:45.917Z,1.30
2022-08-08T16:16:18.121Z,1.60
2022-08-08T16:18:56.910Z,1.30
2022-08-08T16:21:29.069Z,0.90
2022-08-08T16:23:58.400Z,1.00
2022-08-08T16:26:34.460Z,0.90
2022-08-08T16:29:07.050Z,1.00
2022-08-08T16:31:37.623Z,0.90
2022-08-08T16:34:06.325Z,1.00
2022-08-08T16:36:37.427Z,1.00
2022-08-08T16:39:09.752Z,1.10
2022-08-08T16:41:50.982Z,0.83
2022-08-08T16:44:27.760Z,1.07
2022-08-08T16:47:17.777Z,0.97
2022-08-08T16:49:50.046Z,1.00
2022-08-08T16:55:01.609Z,0.90
2022-08-08T16:55:53.404Z,0.80
2022-08-08T16:58:16.059Z,0.80
2022-08-08T17:00:48.757Z,0.80
2022-08-08T17:03:24.247Z,0.70
2022-08-08T17:05:56.393Z,1.33
2022-08-08T17:08:24.494Z,0.90
2022-08-08T17:10:58.634Z,0.90
2022-08-08T17:13:41.182Z,1.00
2022-08-08T17:16:22.062Z,1.00
2022-08-08T17:18:51.121Z,1.00
2022-08-08T17:21:21.522Z,1.10
2022-08-08T17:24:00.575Z,0.90
2022-08-08T17:26:30.459Z,0.83
2022-08-08T17:29:03.951Z,1.40
2022-08-08T17:31:43.999Z,1.00
2022-08-08T17:34:53.765Z,1.57
2022-08-08T17:37:09.096Z,1.10
2022-08-08T17:40:03.781Z,0.80
2022-08-08T17:42:27.586Z,1.10
2022-08-08T17:44:58.512Z,1.20
2022-08-08T17:47:37.575Z,0.90
2022-08-08T17:50:10.229Z,1.10
2022-08-08T17:52:43.354Z,1.00
2022-08-08T17:56:05.649Z,1.30
2022-08-08T17:58:01.832Z,1.20
2022-08-08T18:00:32.053Z,0.93
2022-08-08T18:03:08.348Z,1.23
2022-08-08T18:05:48.033Z,1.10
2022-08-08T18:08:37.924Z,1.10
2022-08-08T18:11:09.234Z,0.80
2022-08-08T18:13:42.066Z,1.10
2022-08-08T18:16:12.895Z,0.93
2022-08-08T18:18:53.691Z,1.10
2022-08-08T18:21:34.652Z,1.10
2022-08-08T18:24:17.336Z,0.97
2022-08-08T18:26:53.764Z,1.50
2022-08-08T18:29:29.496Z,1.50
2022-08-08T18:32:00.125Z,1.20
2022-08-08T18:34:32.977Z,1.20
2022-08-08T18:37:04.724Z,1.20
2022-08-08T18:39:36.406Z,1.40
2022-08-08T18:42:13.864Z,1.10
2022-08-08T18:44:52.752Z,1.30
2022-08-08T18:47:26.411Z,1.10
2022-08-08T18:49:58.556Z,1.27
2022-08-08T18:52:30.013Z,1.20
2022-08-08T18:55:00.844Z,1.30
2022-08-08T18:57:41.498Z,1.10
2022-08-08T19:00:15.563Z,1.30
2022-08-08T19:02:48.474Z,1.10
2022-08-08T19:05:32.322Z,1.20
2022-08-08T19:08:25.366Z,1.00
2022-08-08T19:10:59.474Z,1.30
2022-08-08T19:13:52.822Z,1.30
2022-08-08T19:16:19.059Z,1.30
2022-08-08T19:19:00.023Z,1.30
2022-08-08T19:21:33.271Z,1.30
2022-08-08T19:24:05.752Z,1.33
2022-08-08T19:26:35.779Z,1.30
2022-08-08T19:29:06.641Z,1.43
2022-08-08T19:31:35.749Z,1.10
2022-08-08T19:34:30.063Z,1.23
2022-08-08T19:36:58.759Z,1.30
2022-08-08T19:39:35.592Z,1.30
2022-08-08T19:42:06.606Z,1.50
2022-08-08T19:44:45.302Z,1.50
2022-08-08T19:47:14.599Z,1.30
2022-08-08T19:49:59.984Z,1.20
2022-08-08T19:52:34.292Z,1.40
2022-08-08T19:55:05.158Z,1.40
2022-08-08T19:57:37.763Z,1.20
2022-08-08T20:00:11.413Z,1.37
2022-08-08T20:02:57.267Z,1.20
2022-08-08T20:06:14.323Z,1.30
2022-08-08T20:08:29.835Z,1.10
2022-08-08T20:11:00.179Z,1.20
2022-08-08T20:14:31.404Z,1.37
2022-08-08T20:16:18.404Z,1.53
2022-08-08T20:18:52.833Z,1.30
2022-08-08T20:21:25.741Z,1.50
2022-08-08T20:23:57.702Z,1.23
2022-08-08T20:26:29.904Z,1.23
2022-08-08T20:29:00.221Z,1.20
2022-08-08T20:32:06.985Z,1.67
2022-08-08T20:34:30.342Z,1.47
2022-08-08T20:37:02.567Z,1.30
2022-08-08T20:39:39.769Z,1.60
2022-08-08T20:42:28.187Z,1.50
2022-08-08T20:44:58.884Z,1.60
2022-08-08T20:47:36.052Z,1.53
2022-08-08T20:50:06.299Z,1.27
2022-08-08T20:52:40.243Z,1.30
2022-08-08T20:55:22.847Z,1.40
2022-08-08T20:57:54.286Z,1.27
2022-08-08T21:00:26.049Z,1.30
2022-08-08T21:02:54.297Z,1.27
2022-08-08T21:05:23.199Z,1.50
2022-08-08T21:08:37.335Z,1.30
2022-08-08T21:10:41.050Z,1.50
2022-08-08T21:13:09.156Z,1.60
2022-08-08T21:16:04.709Z,1.50
2022-08-08T21:18:27.783Z,1.40
2022-08-08T21:20:56.327Z,1.30
2022-08-08T21:23:59.210Z,1.40
2022-08-08T21:26:21.057Z,1.70
2022-08-08T21:28:56.092Z,1.70
2022-08-08T21:31:53.211Z,1.57
2022-08-08T21:34:18.549Z,1.23
2022-08-08T21:36:48.483Z,1.37
2022-08-08T21:39:19.630Z,1.47
2022-08-08T21:41:53.792Z,1.40
2022-08-08T21:44:27.371Z,1.33
2022-08-08T21:48:05.193Z,1.20
2022-08-08T21:49:44.129Z,1.43
2022-08-08T21:54:32.397Z,2.10
2022-08-08T21:55:04.406Z,1.23
2022-08-08T21:58:04.102Z,1.20
2022-08-08T22:00:40.705Z,1.60
2022-08-08T22:03:11.125Z,1.60
2022-08-08T22:05:43.719Z,1.57
2022-08-08T22:08:11.997Z,1.50
2022-08-08T22:10:45.225Z,1.47
2022-08-08T22:13:19.568Z,1.40
2022-08-08T22:15:58.383Z,1.60
2022-08-08T22:18:29.587Z,1.20
2022-08-08T22:20:59.511Z,1.73
2022-08-08T22:23:34.054Z,1.70
2022-08-08T22:26:26.679Z,1.40
2022-08-08T22:29:04.366Z,1.30
2022-08-08T22:31:43.179Z,1.50
2022-08-08T22:34:15.079Z,1.40
2022-08-08T22:36:43.814Z,1.83
2022-08-08T22:39:19.509Z,1.70
2022-08-08T22:41:49.595Z,1.30
2022-08-08T22:44:18.011Z,1.40
2022-08-08T22:46:46.192Z,1.60
2022-08-08T22:49:20.234Z,1.50
2022-08-08T22:51:48.618Z,1.67
2022-08-08T22:54:33.909Z,1.20
2022-08-08T22:57:11.503Z,1.20
2022-08-08T22:59:58.671Z,1.30
2022-08-08T23:02:28.857Z,1.20
2022-08-08T23:04:57.761Z,1.30
2022-08-08T23:07:51.687Z,1.50
2022-08-08T23:10:21.165Z,1.23
2022-08-08T23:12:51.721Z,1.50
2022-08-08T23:16:38.995Z,1.47
2022-08-08T23:18:11.810Z,1.53
2022-08-08T23:20:40.985Z,1.30
2022-08-08T23:23:12.206Z,1.60
2022-08-08T23:25:48.333Z,1.40
2022-08-08T23:28:19.143Z,1.70
2022-08-08T23:30:47.960Z,1.50
2022-08-08T23:33:21.087Z,1.60
2022-08-08T23:36:07.868Z,1.70
2022-08-08T23:38:41.885Z,1.40
2022-08-08T23:41:23.246Z,1.27
2022-08-08T23:43:56.456Z,1.40
2022-08-08T23:49:03.737Z,1.50
2022-08-08T23:49:18.942Z,1.60
2022-08-08T23:52:04.293Z,1.50
2022-08-08T23:54:43.600Z,1.30
2022-08-08T23:57:26.952Z,1.40
